createdAt,value
2019-05-26T00:01:18.805Z,8.50
2019-05-26T00:04:12.488Z,8.20
2019-05-26T00:06:57.209Z,9.27
2019-05-26T00:09:29.947Z,9.10
2019-05-26T00:12:23.392Z,8.37
2019-05-26T00:15:08.090Z,8.33
2019-05-26T00:18:01.942Z,9.20
2019-05-26T00:20:46.415Z,7.70
2019-05-26T00:23:31.160Z,7.47
2019-05-26T00:26:16.191Z,8.33
2019-05-26T00:29:00.888Z,7.57
2019-05-26T00:31:45.147Z,9.13
2019-05-26T00:34:38.668Z,7.60
2019-05-26T00:37:23.672Z,8.77
2019-05-26T00:40:08.500Z,8.60
2019-05-26T00:42:52.865Z,7.40
2019-05-26T00:45:37.611Z,8.63
2019-05-26T00:48:22.478Z,7.53
2019-05-26T00:51:07.944Z,7.27
2019-05-26T00:53:52.644Z,7.47
2019-05-26T00:56:37.324Z,7.67
2019-05-26T00:59:22.165Z,8.00
2019-05-26T01:02:06.939Z,6.73
2019-05-26T01:04:51.774Z,11.23
2019-05-26T01:07:36.302Z,9.27
2019-05-26T01:10:21.212Z,8.43
2019-05-26T01:13:05.924Z,7.40
2019-05-26T01:15:50.332Z,7.57
2019-05-26T01:18:35.043Z,7.37
2019-05-26T01:21:19.928Z,9.27
2019-05-26T01:24:04.226Z,9.43
2019-05-26T01:26:57.995Z,8.27
2019-05-26T01:29:43.044Z,10.60
2019-05-26T01:32:36.908Z,7.77
2019-05-26T01:35:21.585Z,8.53
2019-05-26T01:38:22.351Z,8.90
2019-05-26T01:40:53.669Z,8.80
2019-05-26T01:43:38.812Z,11.27
2019-05-26T01:46:23.464Z,12.57
2019-05-26T01:49:07.797Z,11.47
2019-05-26T01:51:53.464Z,12.97
2019-05-26T01:54:40.719Z,13.10
2019-05-26T01:57:24.481Z,12.13
2019-05-26T02:00:09.339Z,10.67
2019-05-26T02:02:53.989Z,11.33
2019-05-26T02:05:38.741Z,11.47
2019-05-26T02:08:38.301Z,11.33
2019-05-26T02:11:10.197Z,14.90
2019-05-26T02:13:55.287Z,11.10
2019-05-26T02:16:40.320Z,11.37
2019-05-26T02:19:34.756Z,12.50
2019-05-26T02:22:28.567Z,10.47
2019-05-26T02:25:22.485Z,11.30
2019-05-26T02:28:07.600Z,10.57
2019-05-26T02:31:01.688Z,11.17
2019-05-26T02:33:47.832Z,10.90
2019-05-26T02:36:32.655Z,13.13
2019-05-26T02:39:17.121Z,11.13
2019-05-26T02:42:01.962Z,9.93
2019-05-26T02:44:46.364Z,12.27
2019-05-26T02:47:41.463Z,11.70
2019-05-26T02:50:35.131Z,11.23
2019-05-26T02:53:24.560Z,11.13
2019-05-26T02:56:07.119Z,11.60
2019-05-26T02:59:00.360Z,10.13
2019-05-26T03:02:02.149Z,12.40
2019-05-26T03:04:31.495Z,13.87
2019-05-26T03:07:16.259Z,17.77
2019-05-26T03:10:00.964Z,12.57
2019-05-26T03:12:46.222Z,13.47
2019-05-26T03:15:31.169Z,14.43
2019-05-26T03:18:25.024Z,10.80
2019-05-26T03:21:11.134Z,13.20
2019-05-26T03:23:56.488Z,12.73
2019-05-26T03:26:50.911Z,11.73
2019-05-26T03:29:44.382Z,15.93
2019-05-26T03:32:29.233Z,12.20
2019-05-26T03:35:14.109Z,12.93
2019-05-26T03:37:59.700Z,12.53
2019-05-26T03:40:44.174Z,13.80
2019-05-26T03:43:37.912Z,11.97
2019-05-26T03:46:22.635Z,13.07
2019-05-26T03:49:07.481Z,13.17
2019-05-26T03:51:52.265Z,12.23
2019-05-26T03:54:37.402Z,12.77
2019-05-26T03:57:31.032Z,13.90
2019-05-26T04:00:15.503Z,12.27
2019-05-26T04:02:59.937Z,12.07
2019-05-26T04:05:44.701Z,16.23
2019-05-26T04:08:30.250Z,13.87
2019-05-26T04:11:15.463Z,12.57
2019-05-26T04:14:09.199Z,12.07
2019-05-26T04:16:56.332Z,11.30
2019-05-26T04:19:40.409Z,12.87
2019-05-26T04:22:25.025Z,13.00
2019-05-26T04:25:09.925Z,11.77
2019-05-26T04:27:54.656Z,13.77
2019-05-26T04:30:39.257Z,10.93
2019-05-26T04:33:24.024Z,12.23
2019-05-26T04:36:08.669Z,11.00
2019-05-26T04:38:53.158Z,14.70
2019-05-26T04:41:46.589Z,12.27
2019-05-26T04:44:31.336Z,12.13
2019-05-26T04:47:16.198Z,12.53
2019-05-26T04:50:00.974Z,10.80
2019-05-26T04:53:04.601Z,12.83
2019-05-26T04:55:32.056Z,11.23
2019-05-26T04:58:16.920Z,13.17
2019-05-26T05:01:02.256Z,11.73
2019-05-26T05:03:56.120Z,11.70
2019-05-26T05:06:40.908Z,10.77
2019-05-26T05:09:25.681Z,13.13
2019-05-26T05:12:10.932Z,12.97
2019-05-26T05:15:04.628Z,10.10
2019-05-26T05:17:49.285Z,11.17
2019-05-26T05:20:34.092Z,10.60
2019-05-26T05:23:18.720Z,11.30
2019-05-26T05:26:03.485Z,10.33
2019-05-26T05:28:47.844Z,9.37
2019-05-26T05:31:32.488Z,9.90
2019-05-26T05:34:17.328Z,14.43
2019-05-26T05:37:02.196Z,10.97
2019-05-26T05:39:47.316Z,11.53
2019-05-26T05:42:32.008Z,10.47
2019-05-26T05:45:16.431Z,10.13
2019-05-26T05:48:00.995Z,11.47
2019-05-26T05:50:54.654Z,13.83
2019-05-26T05:53:39.376Z,10.97
2019-05-26T05:56:23.864Z,11.37
2019-05-26T05:59:08.324Z,11.93
2019-05-26T06:01:53.173Z,12.10
2019-05-26T06:04:37.719Z,12.17
2019-05-26T06:07:33.839Z,14.13
2019-05-26T06:10:18.955Z,11.57
2019-05-26T06:13:04.236Z,11.53
2019-05-26T06:15:58.160Z,12.27
2019-05-26T06:18:42.803Z,11.57
2019-05-26T06:21:27.636Z,12.53
2019-05-26T06:24:12.429Z,10.87
2019-05-26T06:26:57.559Z,13.53
2019-05-26T06:29:57.893Z,11.23
2019-05-26T06:32:30.268Z,11.20
2019-05-26T06:35:15.260Z,10.77
2019-05-26T06:38:09.166Z,10.20
2019-05-26T06:40:54.212Z,10.90
2019-05-26T06:43:48.261Z,10.23
2019-05-26T06:46:33.928Z,9.17
2019-05-26T06:49:19.112Z,9.70
2019-05-26T06:52:03.802Z,9.23
2019-05-26T06:54:48.594Z,9.33
2019-05-26T06:57:33.402Z,11.93
2019-05-26T07:00:18.148Z,9.60
2019-05-26T07:03:02.988Z,9.73
2019-05-26T07:05:48.032Z,8.47
2019-05-26T07:08:32.650Z,10.80
2019-05-26T07:11:17.364Z,8.33
2019-05-26T07:14:02.416Z,10.40
2019-05-26T07:16:47.131Z,8.03
2019-05-26T07:19:32.245Z,8.37
2019-05-26T07:22:26.480Z,8.90
2019-05-26T07:25:20.380Z,8.33
2019-05-26T07:28:05.955Z,8.10
2019-05-26T07:30:50.950Z,8.07
2019-05-26T07:33:36.290Z,8.77
2019-05-26T07:36:21.405Z,8.60
2019-05-26T07:39:15.062Z,9.23
2019-05-26T07:42:09.848Z,8.33
2019-05-26T07:44:46.444Z,8.63
2019-05-26T07:47:31.256Z,11.13
2019-05-26T07:50:16.014Z,8.53
2019-05-26T07:53:00.760Z,9.67
2019-05-26T07:55:45.692Z,8.57
2019-05-26T07:58:30.466Z,8.97
2019-05-26T08:01:15.686Z,8.03
2019-05-26T08:04:09.448Z,9.23
2019-05-26T08:06:54.276Z,7.93
2019-05-26T08:09:39.144Z,10.20
2019-05-26T08:12:28.166Z,8.13
2019-05-26T08:15:22.393Z,11.83
2019-05-26T08:18:07.532Z,7.53
2019-05-26T08:20:52.203Z,8.47
2019-05-26T08:23:37.312Z,8.97
2019-05-26T08:26:31.463Z,9.17
2019-05-26T08:29:25.499Z,8.20
2019-05-26T08:32:13.294Z,8.70
2019-05-26T08:34:58.860Z,8.70
2019-05-26T08:37:52.363Z,8.73
2019-05-26T08:40:36.816Z,8.33
2019-05-26T08:43:21.676Z,9.60
2019-05-26T08:46:06.679Z,7.57
2019-05-26T08:48:51.464Z,7.80
2019-05-26T08:51:36.759Z,8.17
2019-05-26T08:54:30.354Z,10.03
2019-05-26T08:57:15.335Z,7.90
2019-05-26T08:59:59.706Z,7.80
2019-05-26T09:02:44.608Z,9.27
2019-05-26T09:05:29.543Z,7.40
2019-05-26T09:08:14.472Z,10.90
2019-05-26T09:10:59.352Z,8.80
2019-05-26T09:13:44.268Z,8.67
2019-05-26T09:16:38.718Z,10.27
2019-05-26T09:19:32.357Z,8.87
2019-05-26T09:22:17.175Z,8.40
2019-05-26T09:25:02.217Z,8.17
2019-05-26T09:27:48.125Z,8.90
2019-05-26T09:30:33.489Z,8.43
2019-05-26T09:33:27.283Z,8.27
2019-05-26T09:36:12.296Z,7.33
2019-05-26T09:38:56.692Z,8.83
2019-05-26T09:41:41.221Z,8.37
2019-05-26T09:44:25.980Z,8.77
2019-05-26T09:47:10.867Z,8.23
2019-05-26T09:49:55.832Z,8.10
2019-05-26T09:52:40.751Z,7.27
2019-05-26T09:55:25.571Z,8.93
2019-05-26T09:58:10.889Z,6.67
2019-05-26T10:01:04.726Z,8.43
2019-05-26T10:03:49.295Z,7.17
2019-05-26T10:06:33.810Z,8.40
2019-05-26T10:09:19.196Z,7.30
2019-05-26T10:12:03.901Z,8.47
2019-05-26T10:14:48.960Z,10.63
2019-05-26T10:17:43.043Z,7.67
2019-05-26T10:20:27.804Z,7.03
2019-05-26T10:23:12.752Z,7.30
2019-05-26T10:26:06.709Z,6.40
2019-05-26T10:28:51.895Z,6.40
2019-05-26T10:31:45.660Z,7.87
2019-05-26T10:34:30.268Z,7.43
2019-05-26T10:37:14.708Z,6.57
2019-05-26T10:40:09.683Z,8.30
2019-05-26T10:43:09.296Z,6.63
2019-05-26T10:45:54.212Z,7.57
2019-05-26T10:48:39.081Z,7.60
2019-05-26T10:51:23.733Z,6.80
2019-05-26T10:54:08.845Z,8.70
2019-05-26T10:56:53.572Z,7.67
2019-05-26T10:59:38.464Z,7.47
2019-05-26T11:02:32.877Z,6.20
2019-05-26T11:05:27.064Z,5.97
2019-05-26T11:08:21.013Z,6.07
2019-05-26T11:11:15.284Z,7.73
2019-05-26T11:14:09.156Z,6.70
2019-05-26T11:16:54.122Z,5.20
2019-05-26T11:19:48.079Z,4.97
2019-05-26T11:22:33.010Z,7.27
2019-05-26T11:25:26.791Z,7.90
2019-05-26T11:28:11.820Z,7.57
2019-05-26T11:30:56.645Z,4.77
2019-05-26T11:33:42.620Z,7.13
2019-05-26T11:36:27.684Z,5.93
2019-05-26T11:39:13.191Z,6.37
2019-05-26T11:42:13.133Z,7.90
2019-05-26T11:44:53.081Z,8.70
2019-05-26T11:47:38.276Z,5.67
2019-05-26T11:50:32.345Z,6.63
2019-05-26T11:53:26.594Z,6.97
2019-05-26T11:56:20.780Z,6.67
2019-05-26T11:59:15.012Z,5.17
2019-05-26T12:02:08.736Z,5.90
2019-05-26T12:04:53.476Z,6.13
2019-05-26T12:07:37.931Z,4.97
2019-05-26T12:10:22.836Z,4.13
2019-05-26T12:13:07.753Z,4.60
2019-05-26T12:15:52.479Z,4.77
2019-05-26T12:18:46.947Z,5.23
2019-05-26T12:21:31.716Z,7.13
2019-05-26T12:24:16.724Z,4.23
2019-05-26T12:27:10.711Z,4.90
2019-05-26T12:29:55.211Z,3.80
2019-05-26T12:32:39.871Z,6.03
2019-05-26T12:35:27.600Z,3.73
2019-05-26T12:38:12.297Z,3.47
2019-05-26T12:40:58.267Z,3.40
2019-05-26T12:43:52.143Z,4.10
2019-05-26T12:46:37.060Z,4.23
2019-05-26T12:49:31.044Z,4.40
2019-05-26T12:52:15.687Z,4.33
2019-05-26T12:55:00.133Z,3.00
2019-05-26T12:57:45.233Z,3.90
2019-05-26T13:00:47.091Z,3.90
2019-05-26T13:03:16.589Z,5.03
2019-05-26T13:06:01.379Z,2.10
2019-05-26T13:08:45.676Z,2.80
2019-05-26T13:11:30.188Z,1.97
2019-05-26T13:14:15.328Z,1.80
2019-05-26T13:17:01.725Z,2.00
2019-05-26T13:19:47.252Z,2.23
2019-05-26T13:22:41.281Z,2.20
2019-05-26T13:25:25.804Z,2.17
2019-05-26T13:28:10.609Z,2.60
2019-05-26T13:30:55.588Z,2.37
2019-05-26T13:33:40.176Z,4.33
2019-05-26T13:36:24.747Z,1.90
2019-05-26T13:39:09.561Z,1.60
2019-05-26T13:41:54.187Z,2.03
2019-05-26T13:44:39.284Z,2.00
2019-05-26T13:47:26.549Z,2.13
2019-05-26T13:50:11.603Z,1.70
2019-05-26T13:52:56.875Z,2.03
2019-05-26T13:55:41.963Z,1.80
2019-05-26T13:58:27.285Z,1.63
2019-05-26T14:01:21.563Z,2.00
2019-05-26T14:04:15.061Z,1.87
2019-05-26T14:06:59.903Z,3.20
2019-05-26T14:09:44.748Z,1.77
2019-05-26T14:12:30.041Z,2.27
2019-05-26T14:15:36.827Z,1.97
2019-05-26T14:18:10.182Z,1.87
2019-05-26T14:20:55.260Z,1.40
2019-05-26T14:23:49.447Z,2.93
2019-05-26T14:26:43.643Z,2.63
2019-05-26T14:29:37.419Z,2.40
2019-05-26T14:32:21.884Z,4.03
2019-05-26T14:35:06.675Z,1.80
2019-05-26T14:37:51.133Z,1.63
2019-05-26T14:40:36.469Z,1.87
2019-05-26T14:43:21.351Z,1.70
2019-05-26T14:46:06.084Z,1.93
2019-05-26T14:48:50.511Z,1.80
2019-05-26T14:51:34.988Z,1.83
2019-05-26T14:54:20.073Z,1.73
2019-05-26T14:57:04.485Z,2.33
2019-05-26T14:59:57.931Z,1.50
2019-05-26T15:02:42.538Z,1.80
2019-05-26T15:05:27.556Z,1.90
2019-05-26T15:08:12.694Z,2.20
2019-05-26T15:11:06.783Z,2.97
2019-05-26T15:14:00.436Z,2.27
2019-05-26T15:16:45.664Z,2.50
2019-05-26T15:19:39.648Z,1.40
2019-05-26T15:22:25.156Z,1.57
2019-05-26T15:25:10.045Z,1.80
2019-05-26T15:27:54.453Z,3.23
2019-05-26T15:30:48.072Z,2.17
2019-05-26T15:33:32.704Z,2.23
2019-05-26T15:36:17.620Z,1.83
2019-05-26T15:39:09.771Z,1.83
2019-05-26T15:42:02.192Z,1.50
2019-05-26T15:44:56.024Z,1.60
2019-05-26T15:47:50.268Z,2.03
2019-05-26T15:50:44.319Z,1.80
2019-05-26T15:53:29.048Z,3.20
2019-05-26T15:56:13.917Z,1.90
2019-05-26T15:58:59.169Z,2.37
2019-05-26T16:01:52.621Z,2.30
2019-05-26T16:04:37.472Z,2.60
2019-05-26T16:07:22.356Z,1.83
2019-05-26T16:10:07.249Z,2.60
2019-05-26T16:13:01.251Z,1.73
2019-05-26T16:15:46.228Z,1.50
2019-05-26T16:18:40.432Z,2.83
2019-05-26T16:21:34.171Z,2.27
2019-05-26T16:24:18.967Z,3.20
2019-05-26T16:27:18.255Z,3.03
2019-05-26T16:29:49.821Z,1.70
2019-05-26T16:32:34.716Z,1.63
2019-05-26T16:35:19.463Z,1.80
2019-05-26T16:38:04.768Z,1.90
2019-05-26T16:40:50.171Z,2.23
2019-05-26T16:43:43.615Z,1.80
2019-05-26T16:46:28.992Z,3.33
2019-05-26T16:49:22.493Z,1.90
2019-05-26T16:52:07.441Z,1.80
2019-05-26T16:54:52.381Z,3.20
2019-05-26T16:57:46.271Z,2.10
2019-05-26T17:00:31.713Z,4.03
2019-05-26T17:03:25.360Z,1.80
2019-05-26T17:06:10.270Z,2.83
2019-05-26T17:09:04.428Z,1.67
2019-05-26T17:11:58.658Z,2.33
2019-05-26T17:14:53.084Z,1.50
2019-05-26T17:17:46.968Z,2.63
2019-05-26T17:20:40.983Z,2.37
2019-05-26T17:23:34.756Z,2.40
2019-05-26T17:26:19.309Z,1.60
2019-05-26T17:29:04.149Z,2.97
2019-05-26T17:31:49.061Z,2.27
2019-05-26T17:34:34.266Z,1.90
2019-05-26T17:37:19.118Z,1.97
2019-05-26T17:40:13.122Z,1.60
2019-05-26T17:42:57.444Z,1.63
2019-05-26T17:45:41.949Z,2.50
2019-05-26T17:48:26.847Z,1.77
2019-05-26T17:51:11.195Z,2.10
2019-05-26T17:54:04.604Z,1.70
2019-05-26T17:56:49.547Z,1.63
2019-05-26T17:59:34.361Z,2.13
2019-05-26T18:02:19.408Z,2.10
2019-05-26T18:05:04.377Z,4.23
2019-05-26T18:08:00.215Z,2.00
2019-05-26T18:10:53.987Z,3.80
2019-05-26T18:13:38.657Z,2.13
2019-05-26T18:16:23.620Z,1.90
2019-05-26T18:19:08.423Z,1.60
2019-05-26T18:21:53.209Z,1.97
2019-05-26T18:24:37.955Z,2.50
2019-05-26T18:27:22.764Z,3.37
2019-05-26T18:30:07.483Z,2.67
2019-05-26T18:32:52.552Z,2.10
2019-05-26T18:35:46.333Z,2.17
2019-05-26T18:38:31.712Z,2.07
2019-05-26T18:41:25.423Z,1.60
2019-05-26T18:44:10.679Z,2.17
2019-05-26T18:47:04.592Z,2.10
2019-05-26T18:49:49.208Z,2.23
2019-05-26T18:52:34.497Z,2.77
2019-05-26T18:55:28.432Z,4.70
2019-05-26T18:58:22.252Z,2.10
2019-05-26T19:01:07.022Z,3.77
2019-05-26T19:04:01.232Z,2.10
2019-05-26T19:06:46.199Z,2.73
2019-05-26T19:09:31.318Z,10.00
2019-05-26T19:12:24.854Z,3.30
2019-05-26T19:15:09.502Z,2.47
2019-05-26T19:17:54.137Z,3.20
2019-05-26T19:20:39.073Z,2.10
2019-05-26T19:23:24.236Z,2.20
2019-05-26T19:26:09.212Z,2.83
2019-05-26T19:28:55.751Z,4.07
2019-05-26T19:31:49.664Z,2.37
2019-05-26T19:34:34.379Z,2.67
2019-05-26T19:37:19.074Z,4.80
2019-05-26T19:40:03.988Z,3.50
2019-05-26T19:42:58.140Z,3.83
2019-05-26T19:45:43.426Z,2.80
2019-05-26T19:48:37.522Z,3.47
2019-05-26T19:51:30.975Z,4.33
2019-05-26T19:54:15.804Z,3.53
2019-05-26T19:57:00.710Z,2.63
2019-05-26T19:59:45.644Z,3.20
2019-05-26T20:02:30.757Z,2.90
2019-05-26T20:05:17.160Z,3.27
2019-05-26T20:08:10.994Z,3.37
2019-05-26T20:10:55.922Z,3.30
2019-05-26T20:13:49.675Z,4.93
2019-05-26T20:16:34.628Z,3.33
2019-05-26T20:19:19.796Z,3.07
2019-05-26T20:22:13.657Z,3.40
2019-05-26T20:24:58.687Z,3.30
2019-05-26T20:27:52.644Z,2.97
2019-05-26T20:30:38.192Z,7.07
2019-05-26T20:33:23.413Z,3.83
2019-05-26T20:36:07.756Z,4.13
2019-05-26T20:38:52.600Z,8.37
2019-05-26T20:41:37.281Z,4.07
2019-05-26T20:44:30.594Z,3.63
2019-05-26T20:47:15.607Z,3.57
2019-05-26T20:50:00.724Z,3.80
2019-05-26T20:52:46.909Z,4.97
2019-05-26T20:55:31.985Z,4.13
2019-05-26T20:58:26.031Z,4.03
2019-05-26T21:01:19.832Z,3.90
2019-05-26T21:04:04.955Z,7.23
2019-05-26T21:06:58.730Z,5.87
2019-05-26T21:09:43.603Z,3.40
2019-05-26T21:12:28.612Z,4.67
2019-05-26T21:15:22.587Z,4.27
2019-05-26T21:18:07.400Z,4.43
2019-05-26T21:20:52.560Z,4.23
2019-05-26T21:23:46.141Z,4.87
2019-05-26T21:26:30.581Z,7.73
2019-05-26T21:29:15.326Z,9.30
2019-05-26T21:32:00.068Z,4.77
2019-05-26T21:34:45.016Z,6.97
2019-05-26T21:37:29.559Z,4.63
2019-05-26T21:40:13.992Z,4.87
2019-05-26T21:43:08.011Z,4.47
2019-05-26T21:46:01.655Z,5.27
2019-05-26T21:48:46.671Z,5.77
2019-05-26T21:51:41.025Z,4.97
2019-05-26T21:54:25.523Z,4.50
2019-05-26T21:57:10.742Z,4.83
2019-05-26T21:59:55.702Z,4.43
2019-05-26T22:02:40.128Z,4.03
2019-05-26T22:05:24.840Z,4.40
2019-05-26T22:08:09.812Z,6.00
2019-05-26T22:10:54.456Z,4.30
2019-05-26T22:13:39.307Z,3.80
2019-05-26T22:16:24.103Z,7.17
2019-05-26T22:19:09.032Z,5.37
2019-05-26T22:21:54.008Z,5.30
2019-05-26T22:24:38.825Z,4.27
2019-05-26T22:27:23.581Z,4.47
2019-05-26T22:30:08.115Z,5.20
2019-05-26T22:32:53.192Z,8.23
2019-05-26T22:35:38.528Z,5.87
2019-05-26T22:38:31.961Z,4.43
2019-05-26T22:41:17.116Z,4.00
2019-05-26T22:44:03.077Z,3.63
2019-05-26T22:46:47.986Z,7.03
2019-05-26T22:49:33.582Z,3.67
2019-05-26T22:52:27.167Z,6.17
2019-05-26T22:55:21.325Z,4.00
2019-05-26T22:58:06.137Z,5.07
2019-05-26T23:00:51.035Z,6.83
2019-05-26T23:03:45.184Z,3.73
2019-05-26T23:06:39.018Z,6.47
2019-05-26T23:09:23.785Z,4.40
2019-05-26T23:12:08.784Z,3.37
2019-05-26T23:14:53.480Z,5.80
2019-05-26T23:17:38.428Z,5.57
2019-05-26T23:20:23.656Z,3.43
2019-05-26T23:23:17.391Z,3.30
2019-05-26T23:26:02.093Z,3.30
2019-05-26T23:28:46.962Z,3.40
2019-05-26T23:31:31.876Z,3.23
2019-05-26T23:34:25.631Z,3.10
2019-05-26T23:37:10.580Z,3.60
2019-05-26T23:39:55.669Z,4.00
2019-05-26T23:42:49.472Z,3.30
2019-05-26T23:45:34.553Z,3.30
2019-05-26T23:48:28.436Z,4.60
2019-05-26T23:51:14.084Z,4.07
2019-05-26T23:53:58.960Z,3.17
2019-05-26T23:56:43.920Z,2.90
2019-05-26T23:59:28.473Z,2.70
